sensor_id;sensor_type;location;lat;lon;timestamp;P1;durP1;ratioP1;P2;durP2;ratioP2
9536;SDS011;4807;48.024;11.726;2022-09-09T00:00:53;0.97;;;0.60;;
9536;SDS011;4807;48.024;11.726;2022-09-09T00:04:13;1.57;;;0.60;;
9536;SDS011;4807;48.024;11.726;2022-09-09T00:07:35;0.93;;;0.93;;
9536;SDS011;4807;48.024;11.726;2022-09-09T00:10:56;0.57;;;0.57;;
9536;SDS011;4807;48.024;11.726;2022-09-09T00:14:14;0.70;;;0.60;;
9536;SDS011;4807;48.024;11.726;2022-09-09T00:17:39;1.80;;;0.57;;
9536;SDS011;4807;48.024;11.726;2022-09-09T00:21:00;0.83;;;0.67;;
9536;SDS011;4807;48.024;11.726;2022-09-09T00:24:16;0.97;;;0.63;;
9536;SDS011;4807;48.024;11.726;2022-09-09T00:27:36;1.23;;;0.80;;
9536;SDS011;4807;48.024;11.726;2022-09-09T00:30:49;0.83;;;0.60;;
9536;SDS011;4807;48.024;11.726;2022-09-09T00:34:09;1.70;;;0.63;;
9536;SDS011;4807;48.024;11.726;2022-09-09T00:37:23;0.90;;;0.63;;
9536;SDS011;4807;48.024;11.726;2022-09-09T00:40:35;1.23;;;0.60;;
9536;SDS011;4807;48.024;11.726;2022-09-09T00:43:56;1.20;;;0.70;;
9536;SDS011;4807;48.024;11.726;2022-09-09T00:47:17;0.57;;;0.50;;
9536;SDS011;4807;48.024;11.726;2022-09-09T00:50:49;0.50;;;0.50;;
9536;SDS011;4807;48.024;11.726;2022-09-09T00:54:14;1.20;;;1.00;;
9536;SDS011;4807;48.024;11.726;2022-09-09T00:57:51;2.17;;;0.70;;
9536;SDS011;4807;48.024;11.726;2022-09-09T01:01:02;1.33;;;0.60;;
9536;SDS011;4807;48.024;11.726;2022-09-09T01:04:19;0.43;;;0.40;;
9536;SDS011;4807;48.024;11.726;2022-09-09T01:07:39;1.03;;;0.70;;
9536;SDS011;4807;48.024;11.726;2022-09-09T01:10:56;0.50;;;0.50;;
9536;SDS011;4807;48.024;11.726;2022-09-09T01:14:11;1.00;;;0.63;;
9536;SDS011;4807;48.024;11.726;2022-09-09T01:17:41;2.43;;;0.60;;
9536;SDS011;4807;48.024;11.726;2022-09-09T01:21:01;0.70;;;0.50;;
9536;SDS011;4807;48.024;11.726;2022-09-09T01:24:25;1.00;;;0.57;;
9536;SDS011;4807;48.024;11.726;2022-09-09T01:27:59;2.60;;;0.70;;
9536;SDS011;4807;48.024;11.726;2022-09-09T01:31:14;0.50;;;0.50;;
9536;SDS011;4807;48.024;11.726;2022-09-09T01:34:28;0.87;;;0.53;;
9536;SDS011;4807;48.024;11.726;2022-09-09T01:37:43;1.00;;;0.97;;
9536;SDS011;4807;48.024;11.726;2022-09-09T01:40:52;0.90;;;0.80;;
9536;SDS011;4807;48.024;11.726;2022-09-09T01:44:11;0.60;;;0.60;;
9536;SDS011;4807;48.024;11.726;2022-09-09T01:47:23;0.73;;;0.70;;
9536;SDS011;4807;48.024;11.726;2022-09-09T01:50:51;2.87;;;0.80;;
9536;SDS011;4807;48.024;11.726;2022-09-09T01:54:01;1.33;;;0.57;;
9536;SDS011;4807;48.024;11.726;2022-09-09T01:57:14;1.47;;;0.60;;
9536;SDS011;4807;48.024;11.726;2022-09-09T02:00:32;4.07;;;1.00;;
9536;SDS011;4807;48.024;11.726;2022-09-09T02:03:47;1.07;;;0.60;;
9536;SDS011;4807;48.024;11.726;2022-09-09T02:07:01;1.53;;;0.77;;
9536;SDS011;4807;48.024;11.726;2022-09-09T02:10:20;1.60;;;0.47;;
9536;SDS011;4807;48.024;11.726;2022-09-09T02:13:48;0.57;;;0.57;;
9536;SDS011;4807;48.024;11.726;2022-09-09T02:17:06;2.63;;;0.60;;
9536;SDS011;4807;48.024;11.726;2022-09-09T02:20:32;0.50;;;0.40;;
9536;SDS011;4807;48.024;11.726;2022-09-09T02:23:44;0.83;;;0.50;;
9536;SDS011;4807;48.024;11.726;2022-09-09T02:26:58;1.33;;;0.50;;
9536;SDS011;4807;48.024;11.726;2022-09-09T02:30:15;0.83;;;0.40;;
9536;SDS011;4807;48.024;11.726;2022-09-09T02:33:32;0.40;;;0.37;;
9536;SDS011;4807;48.024;11.726;2022-09-09T02:36:47;0.77;;;0.57;;
9536;SDS011;4807;48.024;11.726;2022-09-09T02:39:58;1.70;;;0.70;;
9536;SDS011;4807;48.024;11.726;2022-09-09T02:43:08;0.47;;;0.47;;
9536;SDS011;4807;48.024;11.726;2022-09-09T02:46:23;0.93;;;0.33;;
9536;SDS011;4807;48.024;11.726;2022-09-09T02:49:50;0.40;;;0.40;;
9536;SDS011;4807;48.024;11.726;2022-09-09T02:53:13;0.63;;;0.50;;
9536;SDS011;4807;48.024;11.726;2022-09-09T02:56:29;0.50;;;0.50;;
9536;SDS011;4807;48.024;11.726;2022-09-09T02:59:49;0.90;;;0.60;;
9536;SDS011;4807;48.024;11.726;2022-09-09T03:02:59;1.50;;;0.60;;
9536;SDS011;4807;48.024;11.726;2022-09-09T03:06:09;3.23;;;0.50;;
9536;SDS011;4807;48.024;11.726;2022-09-09T03:09:19;1.23;;;0.50;;
9536;SDS011;4807;48.024;11.726;2022-09-09T03:12:28;1.43;;;0.60;;
9536;SDS011;4807;48.024;11.726;2022-09-09T03:15:39;1.87;;;0.57;;
9536;SDS011;4807;48.024;11.726;2022-09-09T03:18:53;0.53;;;0.53;;
9536;SDS011;4807;48.024;11.726;2022-09-09T03:22:03;0.53;;;0.53;;
9536;SDS011;4807;48.024;11.726;2022-09-09T03:25:15;0.50;;;0.50;;
9536;SDS011;4807;48.024;11.726;2022-09-09T03:28:25;1.73;;;0.60;;
9536;SDS011;4807;48.024;11.726;2022-09-09T03:31:39;2.93;;;0.57;;
9536;SDS011;4807;48.024;11.726;2022-09-09T03:34:49;0.77;;;0.50;;
9536;SDS011;4807;48.024;11.726;2022-09-09T03:37:59;0.33;;;0.33;;
9536;SDS011;4807;48.024;11.726;2022-09-09T03:41:11;1.37;;;0.60;;
9536;SDS011;4807;48.024;11.726;2022-09-09T03:44:20;0.33;;;0.33;;
9536;SDS011;4807;48.024;11.726;2022-09-09T03:47:28;0.97;;;0.50;;
9536;SDS011;4807;48.024;11.726;2022-09-09T03:50:46;0.63;;;0.60;;
9536;SDS011;4807;48.024;11.726;2022-09-09T03:53:57;0.77;;;0.63;;
9536;SDS011;4807;48.024;11.726;2022-09-09T03:57:07;0.50;;;0.40;;
9536;SDS011;4807;48.024;11.726;2022-09-09T04:00:16;0.50;;;0.50;;
9536;SDS011;4807;48.024;11.726;2022-09-09T04:03:30;2.80;;;0.50;;
9536;SDS011;4807;48.024;11.726;2022-09-09T04:06:39;0.50;;;0.47;;
9536;SDS011;4807;48.024;11.726;2022-09-09T04:09:49;0.67;;;0.60;;
9536;SDS011;4807;48.024;11.726;2022-09-09T04:12:58;1.40;;;0.50;;
9536;SDS011;4807;48.024;11.726;2022-09-09T04:16:09;0.80;;;0.60;;
9536;SDS011;4807;48.024;11.726;2022-09-09T04:19:20;0.83;;;0.50;;
9536;SDS011;4807;48.024;11.726;2022-09-09T04:22:29;0.83;;;0.47;;
9536;SDS011;4807;48.024;11.726;2022-09-09T04:25:43;0.60;;;0.60;;
9536;SDS011;4807;48.024;11.726;2022-09-09T04:28:53;0.70;;;0.70;;
9536;SDS011;4807;48.024;11.726;2022-09-09T04:32:02;0.77;;;0.60;;
9536;SDS011;4807;48.024;11.726;2022-09-09T04:35:12;1.20;;;0.80;;
9536;SDS011;4807;48.024;11.726;2022-09-09T04:38:20;0.93;;;0.70;;
9536;SDS011;4807;48.024;11.726;2022-09-09T04:41:34;0.90;;;0.70;;
9536;SDS011;4807;48.024;11.726;2022-09-09T04:44:44;0.50;;;0.50;;
9536;SDS011;4807;48.024;11.726;2022-09-09T04:47:55;0.90;;;0.60;;
9536;SDS011;4807;48.024;11.726;2022-09-09T04:51:04;1.00;;;0.70;;
9536;SDS011;4807;48.024;11.726;2022-09-09T04:54:16;3.17;;;0.73;;
9536;SDS011;4807;48.024;11.726;2022-09-09T04:57:26;1.60;;;0.60;;
9536;SDS011;4807;48.024;11.726;2022-09-09T05:00:35;0.80;;;0.60;;
9536;SDS011;4807;48.024;11.726;2022-09-09T05:03:48;0.97;;;0.50;;
9536;SDS011;4807;48.024;11.726;2022-09-09T05:07:01;0.63;;;0.60;;
9536;SDS011;4807;48.024;11.726;2022-09-09T05:10:09;2.17;;;0.83;;
9536;SDS011;4807;48.024;11.726;2022-09-09T05:13:22;2.53;;;0.60;;
9536;SDS011;4807;48.024;11.726;2022-09-09T05:16:31;0.70;;;0.60;;
9536;SDS011;4807;48.024;11.726;2022-09-09T05:19:40;1.33;;;0.70;;
9536;SDS011;4807;48.024;11.726;2022-09-09T05:22:52;1.60;;;0.50;;
9536;SDS011;4807;48.024;11.726;2022-09-09T05:26:02;1.50;;;0.70;;
9536;SDS011;4807;48.024;11.726;2022-09-09T05:29:14;0.60;;;0.60;;
9536;SDS011;4807;48.024;11.726;2022-09-09T05:32:23;3.03;;;0.50;;
9536;SDS011;4807;48.024;11.726;2022-09-09T05:35:32;0.30;;;0.30;;
9536;SDS011;4807;48.024;11.726;2022-09-09T05:38:40;1.23;;;0.50;;
9536;SDS011;4807;48.024;11.726;2022-09-09T05:41:50;2.17;;;0.80;;
9536;SDS011;4807;48.024;11.726;2022-09-09T05:45:00;0.77;;;0.50;;
9536;SDS011;4807;48.024;11.726;2022-09-09T05:48:09;0.43;;;0.37;;
9536;SDS011;4807;48.024;11.726;2022-09-09T05:51:18;2.07;;;0.70;;
9536;SDS011;4807;48.024;11.726;2022-09-09T05:54:29;0.97;;;0.60;;
9536;SDS011;4807;48.024;11.726;2022-09-09T05:57:41;0.83;;;0.43;;
9536;SDS011;4807;48.024;11.726;2022-09-09T06:00:51;3.50;;;0.40;;
9536;SDS011;4807;48.024;11.726;2022-09-09T06:04:02;0.57;;;0.50;;
9536;SDS011;4807;48.024;11.726;2022-09-09T06:07:11;0.70;;;0.70;;
9536;SDS011;4807;48.024;11.726;2022-09-09T06:10:21;1.80;;;0.40;;
9536;SDS011;4807;48.024;11.726;2022-09-09T06:13:32;0.50;;;0.47;;
9536;SDS011;4807;48.024;11.726;2022-09-09T06:16:43;0.73;;;0.30;;
9536;SDS011;4807;48.024;11.726;2022-09-09T06:19:57;0.40;;;0.40;;
9536;SDS011;4807;48.024;11.726;2022-09-09T06:23:06;0.50;;;0.43;;
9536;SDS011;4807;48.024;11.726;2022-09-09T06:26:16;2.13;;;0.60;;
9536;SDS011;4807;48.024;11.726;2022-09-09T06:29:29;1.10;;;0.70;;
9536;SDS011;4807;48.024;11.726;2022-09-09T06:32:38;0.63;;;0.63;;
9536;SDS011;4807;48.024;11.726;2022-09-09T06:35:50;1.17;;;0.50;;
9536;SDS011;4807;48.024;11.726;2022-09-09T06:39:00;0.40;;;0.40;;
9536;SDS011;4807;48.024;11.726;2022-09-09T06:42:11;1.47;;;0.40;;
9536;SDS011;4807;48.024;11.726;2022-09-09T06:45:28;1.17;;;0.50;;
9536;SDS011;4807;48.024;11.726;2022-09-09T06:48:39;1.40;;;0.60;;
9536;SDS011;4807;48.024;11.726;2022-09-09T06:51:52;0.37;;;0.37;;
9536;SDS011;4807;48.024;11.726;2022-09-09T06:55:01;1.60;;;0.50;;
9536;SDS011;4807;48.024;11.726;2022-09-09T06:58:12;2.87;;;0.70;;
9536;SDS011;4807;48.024;11.726;2022-09-09T07:01:21;3.73;;;1.40;;
9536;SDS011;4807;48.024;11.726;2022-09-09T07:04:37;1.07;;;0.50;;
9536;SDS011;4807;48.024;11.726;2022-09-09T07:07:45;2.23;;;0.97;;
9536;SDS011;4807;48.024;11.726;2022-09-09T07:11:01;6.37;;;2.03;;
9536;SDS011;4807;48.024;11.726;2022-09-09T07:14:19;6.53;;;3.60;;
9536;SDS011;4807;48.024;11.726;2022-09-09T07:17:34;4.23;;;2.77;;
9536;SDS011;4807;48.024;11.726;2022-09-09T07:20:53;4.10;;;2.67;;
9536;SDS011;4807;48.024;11.726;2022-09-09T07:24:04;2.83;;;1.90;;
9536;SDS011;4807;48.024;11.726;2022-09-09T07:27:18;3.33;;;1.30;;
9536;SDS011;4807;48.024;11.726;2022-09-09T07:30:28;0.60;;;0.60;;
9536;SDS011;4807;48.024;11.726;2022-09-09T07:33:39;0.90;;;0.30;;
9536;SDS011;4807;48.024;11.726;2022-09-09T07:36:49;1.13;;;0.30;;
9536;SDS011;4807;48.024;11.726;2022-09-09T07:39:59;2.00;;;0.50;;
9536;SDS011;4807;48.024;11.726;2022-09-09T07:43:10;0.80;;;0.40;;
9536;SDS011;4807;48.024;11.726;2022-09-09T07:46:23;1.40;;;0.30;;
9536;SDS011;4807;48.024;11.726;2022-09-09T07:49:34;0.53;;;0.47;;
9536;SDS011;4807;48.024;11.726;2022-09-09T07:52:46;0.60;;;0.40;;
9536;SDS011;4807;48.024;11.726;2022-09-09T07:55:55;2.00;;;0.30;;
9536;SDS011;4807;48.024;11.726;2022-09-09T07:59:10;0.40;;;0.40;;
9536;SDS011;4807;48.024;11.726;2022-09-09T08:02:22;2.57;;;0.50;;
9536;SDS011;4807;48.024;11.726;2022-09-09T08:05:31;1.70;;;0.50;;
9536;SDS011;4807;48.024;11.726;2022-09-09T08:08:42;1.53;;;0.40;;
9536;SDS011;4807;48.024;11.726;2022-09-09T08:11:51;1.00;;;0.40;;
9536;SDS011;4807;48.024;11.726;2022-09-09T08:15:03;0.80;;;0.20;;
9536;SDS011;4807;48.024;11.726;2022-09-09T08:18:13;0.30;;;0.30;;
9536;SDS011;4807;48.024;11.726;2022-09-09T08:21:26;2.47;;;0.40;;
9536;SDS011;4807;48.024;11.726;2022-09-09T08:24:41;0.60;;;0.20;;
9536;SDS011;4807;48.024;11.726;2022-09-09T08:27:49;0.77;;;0.47;;
9536;SDS011;4807;48.024;11.726;2022-09-09T08:31:04;0.70;;;0.40;;
9536;SDS011;4807;48.024;11.726;2022-09-09T08:34:19;0.97;;;0.30;;
9536;SDS011;4807;48.024;11.726;2022-09-09T08:37:29;2.43;;;0.40;;
9536;SDS011;4807;48.024;11.726;2022-09-09T08:40:40;1.17;;;0.30;;
9536;SDS011;4807;48.024;11.726;2022-09-09T08:44:02;0.47;;;0.40;;
9536;SDS011;4807;48.024;11.726;2022-09-09T08:47:19;1.33;;;0.40;;
9536;SDS011;4807;48.024;11.726;2022-09-09T08:50:43;0.43;;;0.20;;
9536;SDS011;4807;48.024;11.726;2022-09-09T08:54:02;1.00;;;0.40;;
9536;SDS011;4807;48.024;11.726;2022-09-09T08:57:16;0.83;;;0.60;;
9536;SDS011;4807;48.024;11.726;2022-09-09T09:00:36;0.73;;;0.40;;
9536;SDS011;4807;48.024;11.726;2022-09-09T09:04:00;0.93;;;0.57;;
9536;SDS011;4807;48.024;11.726;2022-09-09T09:07:28;0.83;;;0.30;;
9536;SDS011;4807;48.024;11.726;2022-09-09T09:10:59;0.60;;;0.30;;
9536;SDS011;4807;48.024;11.726;2022-09-09T09:14:10;1.30;;;0.30;;
9536;SDS011;4807;48.024;11.726;2022-09-09T09:17:32;2.37;;;0.50;;
9536;SDS011;4807;48.024;11.726;2022-09-09T09:20:49;0.37;;;0.37;;
9536;SDS011;4807;48.024;11.726;2022-09-09T09:24:09;1.10;;;0.47;;
9536;SDS011;4807;48.024;11.726;2022-09-09T09:27:30;2.47;;;0.30;;
9536;SDS011;4807;48.024;11.726;2022-09-09T09:30:48;0.67;;;0.37;;
9536;SDS011;4807;48.024;11.726;2022-09-09T09:34:04;2.13;;;0.40;;
9536;SDS011;4807;48.024;11.726;2022-09-09T09:37:15;0.53;;;0.50;;
9536;SDS011;4807;48.024;11.726;2022-09-09T09:40:36;3.00;;;0.40;;
9536;SDS011;4807;48.024;11.726;2022-09-09T09:43:52;0.30;;;0.30;;
9536;SDS011;4807;48.024;11.726;2022-09-09T09:47:08;1.30;;;0.40;;
9536;SDS011;4807;48.024;11.726;2022-09-09T09:50:24;1.90;;;0.23;;
9536;SDS011;4807;48.024;11.726;2022-09-09T09:53:34;2.73;;;1.13;;
9536;SDS011;4807;48.024;11.726;2022-09-09T09:56:49;2.67;;;0.40;;
9536;SDS011;4807;48.024;11.726;2022-09-09T10:00:03;1.37;;;0.33;;
9536;SDS011;4807;48.024;11.726;2022-09-09T10:03:25;0.83;;;0.30;;
9536;SDS011;4807;48.024;11.726;2022-09-09T10:06:39;0.40;;;0.30;;
9536;SDS011;4807;48.024;11.726;2022-09-09T10:09:50;0.77;;;0.30;;
9536;SDS011;4807;48.024;11.726;2022-09-09T10:13:03;0.27;;;0.27;;
9536;SDS011;4807;48.024;11.726;2022-09-09T10:16:25;0.33;;;0.20;;
9536;SDS011;4807;48.024;11.726;2022-09-09T10:19:53;2.00;;;0.30;;
9536;SDS011;4807;48.024;11.726;2022-09-09T10:23:34;0.20;;;0.20;;
9536;SDS011;4807;48.024;11.726;2022-09-09T10:27:10;1.37;;;0.37;;
9536;SDS011;4807;48.024;11.726;2022-09-09T10:30:33;1.40;;;0.20;;
9536;SDS011;4807;48.024;11.726;2022-09-09T10:33:57;0.57;;;0.30;;
9536;SDS011;4807;48.024;11.726;2022-09-09T10:37:30;0.50;;;0.13;;
9536;SDS011;4807;48.024;11.726;2022-09-09T10:44:57;1.13;;;0.20;;
9536;SDS011;4807;48.024;11.726;2022-09-09T10:48:26;1.03;;;0.40;;
9536;SDS011;4807;48.024;11.726;2022-09-09T10:51:53;0.83;;;0.30;;
9536;SDS011;4807;48.024;11.726;2022-09-09T10:55:15;1.50;;;0.20;;
9536;SDS011;4807;48.024;11.726;2022-09-09T10:58:27;0.53;;;0.30;;
9536;SDS011;4807;48.024;11.726;2022-09-09T11:01:47;1.80;;;0.30;;
9536;SDS011;4807;48.024;11.726;2022-09-09T11:05:01;1.80;;;0.30;;
9536;SDS011;4807;48.024;11.726;2022-09-09T11:08:17;1.63;;;0.30;;
9536;SDS011;4807;48.024;11.726;2022-09-09T11:11:32;0.37;;;0.37;;
9536;SDS011;4807;48.024;11.726;2022-09-09T11:14:50;0.10;;;0.10;;
9536;SDS011;4807;48.024;11.726;2022-09-09T11:18:11;3.03;;;0.27;;
9536;SDS011;4807;48.024;11.726;2022-09-09T11:21:28;0.97;;;0.40;;
9536;SDS011;4807;48.024;11.726;2022-09-09T11:24:54;0.97;;;0.30;;
9536;SDS011;4807;48.024;11.726;2022-09-09T11:28:28;1.17;;;0.20;;
9536;SDS011;4807;48.024;11.726;2022-09-09T11:32:01;1.40;;;0.20;;
9536;SDS011;4807;48.024;11.726;2022-09-09T11:35:31;3.13;;;0.20;;
9536;SDS011;4807;48.024;11.726;2022-09-09T11:38:56;1.27;;;0.10;;
9536;SDS011;4807;48.024;11.726;2022-09-09T11:42:23;1.33;;;0.10;;
9536;SDS011;4807;48.024;11.726;2022-09-09T11:45:34;1.23;;;0.20;;
9536;SDS011;4807;48.024;11.726;2022-09-09T11:48:44;0.10;;;0.10;;
9536;SDS011;4807;48.024;11.726;2022-09-09T11:52:10;0.30;;;0.30;;
9536;SDS011;4807;48.024;11.726;2022-09-09T11:55:24;0.97;;;0.20;;
9536;SDS011;4807;48.024;11.726;2022-09-09T11:58:40;0.90;;;0.20;;
9536;SDS011;4807;48.024;11.726;2022-09-09T12:02:03;1.20;;;0.23;;
9536;SDS011;4807;48.024;11.726;2022-09-09T12:05:23;0.47;;;0.10;;
9536;SDS011;4807;48.024;11.726;2022-09-09T12:08:46;0.53;;;0.20;;
9536;SDS011;4807;48.024;11.726;2022-09-09T12:12:07;0.43;;;0.10;;
9536;SDS011;4807;48.024;11.726;2022-09-09T12:15:33;0.63;;;0.20;;
9536;SDS011;4807;48.024;11.726;2022-09-09T12:18:43;1.20;;;0.10;;
9536;SDS011;4807;48.024;11.726;2022-09-09T12:21:54;0.30;;;0.20;;
9536;SDS011;4807;48.024;11.726;2022-09-09T12:25:18;0.90;;;0.20;;
9536;SDS011;4807;48.024;11.726;2022-09-09T12:28:40;0.20;;;0.10;;
9536;SDS011;4807;48.024;11.726;2022-09-09T12:32:05;1.30;;;0.10;;
9536;SDS011;4807;48.024;11.726;2022-09-09T12:35:19;0.60;;;0.10;;
9536;SDS011;4807;48.024;11.726;2022-09-09T12:38:34;0.40;;;0.20;;
9536;SDS011;4807;48.024;11.726;2022-09-09T12:41:53;0.47;;;0.17;;
9536;SDS011;4807;48.024;11.726;2022-09-09T12:45:03;0.87;;;0.23;;
9536;SDS011;4807;48.024;11.726;2022-09-09T12:48:27;2.40;;;0.20;;
9536;SDS011;4807;48.024;11.726;2022-09-09T12:51:42;1.70;;;0.20;;
9536;SDS011;4807;48.024;11.726;2022-09-09T12:54:51;1.00;;;0.20;;
9536;SDS011;4807;48.024;11.726;2022-09-09T12:58:00;0.20;;;0.20;;
9536;SDS011;4807;48.024;11.726;2022-09-09T13:01:18;0.40;;;0.20;;
9536;SDS011;4807;48.024;11.726;2022-09-09T13:04:31;0.60;;;0.30;;
9536;SDS011;4807;48.024;11.726;2022-09-09T13:07:41;1.30;;;0.30;;
9536;SDS011;4807;48.024;11.726;2022-09-09T13:10:50;0.70;;;0.20;;
9536;SDS011;4807;48.024;11.726;2022-09-09T13:14:12;3.40;;;0.20;;
9536;SDS011;4807;48.024;11.726;2022-09-09T13:17:27;2.00;;;0.70;;
9536;SDS011;4807;48.024;11.726;2022-09-09T13:20:35;0.30;;;0.20;;
9536;SDS011;4807;48.024;11.726;2022-09-09T13:23:49;0.47;;;0.43;;
9536;SDS011;4807;48.024;11.726;2022-09-09T13:27:00;0.43;;;0.30;;
9536;SDS011;4807;48.024;11.726;2022-09-09T13:30:21;0.70;;;0.20;;
9536;SDS011;4807;48.024;11.726;2022-09-09T13:33:32;0.43;;;0.10;;
9536;SDS011;4807;48.024;11.726;2022-09-09T13:36:46;0.50;;;0.10;;
9536;SDS011;4807;48.024;11.726;2022-09-09T13:39:57;0.30;;;0.13;;
9536;SDS011;4807;48.024;11.726;2022-09-09T13:43:10;0.70;;;0.10;;
9536;SDS011;4807;48.024;11.726;2022-09-09T13:46:32;0.20;;;0.10;;
9536;SDS011;4807;48.024;11.726;2022-09-09T13:49:43;1.43;;;0.10;;
9536;SDS011;4807;48.024;11.726;2022-09-09T13:52:52;0.10;;;0.10;;
9536;SDS011;4807;48.024;11.726;2022-09-09T13:56:07;0.20;;;0.20;;
9536;SDS011;4807;48.024;11.726;2022-09-09T13:59:17;0.30;;;0.20;;
9536;SDS011;4807;48.024;11.726;2022-09-09T14:02:27;0.30;;;0.13;;
9536;SDS011;4807;48.024;11.726;2022-09-09T14:05:37;0.13;;;0.10;;
9536;SDS011;4807;48.024;11.726;2022-09-09T14:08:46;1.23;;;0.20;;
9536;SDS011;4807;48.024;11.726;2022-09-09T14:11:56;0.53;;;0.20;;
9536;SDS011;4807;48.024;11.726;2022-09-09T14:15:06;0.30;;;0.20;;
9536;SDS011;4807;48.024;11.726;2022-09-09T14:18:19;0.20;;;0.20;;
9536;SDS011;4807;48.024;11.726;2022-09-09T14:21:28;0.20;;;0.20;;
9536;SDS011;4807;48.024;11.726;2022-09-09T14:24:37;0.20;;;0.20;;
9536;SDS011;4807;48.024;11.726;2022-09-09T14:27:46;0.33;;;0.20;;
9536;SDS011;4807;48.024;11.726;2022-09-09T14:30:58;2.10;;;0.20;;
9536;SDS011;4807;48.024;11.726;2022-09-09T14:34:08;0.60;;;0.20;;
9536;SDS011;4807;48.024;11.726;2022-09-09T14:37:17;0.50;;;0.17;;
9536;SDS011;4807;48.024;11.726;2022-09-09T14:40:26;0.30;;;0.27;;
9536;SDS011;4807;48.024;11.726;2022-09-09T14:43:36;0.40;;;0.20;;
9536;SDS011;4807;48.024;11.726;2022-09-09T14:46:45;0.10;;;0.10;;
9536;SDS011;4807;48.024;11.726;2022-09-09T14:49:53;0.10;;;0.10;;
9536;SDS011;4807;48.024;11.726;2022-09-09T14:53:02;0.10;;;0.10;;
9536;SDS011;4807;48.024;11.726;2022-09-09T14:56:11;2.87;;;0.23;;
9536;SDS011;4807;48.024;11.726;2022-09-09T14:59:24;0.60;;;0.20;;
9536;SDS011;4807;48.024;11.726;2022-09-09T15:02:33;1.43;;;0.13;;
9536;SDS011;4807;48.024;11.726;2022-09-09T15:05:41;1.17;;;0.30;;
9536;SDS011;4807;48.024;11.726;2022-09-09T15:08:50;1.23;;;0.20;;
9536;SDS011;4807;48.024;11.726;2022-09-09T15:12:01;1.17;;;0.20;;
9536;SDS011;4807;48.024;11.726;2022-09-09T15:15:12;0.47;;;0.17;;
9536;SDS011;4807;48.024;11.726;2022-09-09T15:18:20;0.33;;;0.10;;
9536;SDS011;4807;48.024;11.726;2022-09-09T15:21:30;0.20;;;0.20;;
9536;SDS011;4807;48.024;11.726;2022-09-09T15:24:41;1.53;;;0.30;;
9536;SDS011;4807;48.024;11.726;2022-09-09T15:27:50;2.70;;;0.20;;
9536;SDS011;4807;48.024;11.726;2022-09-09T15:31:00;0.60;;;0.30;;
9536;SDS011;4807;48.024;11.726;2022-09-09T15:34:14;0.20;;;0.20;;
9536;SDS011;4807;48.024;11.726;2022-09-09T15:37:23;0.37;;;0.20;;
9536;SDS011;4807;48.024;11.726;2022-09-09T15:40:33;1.17;;;0.10;;
9536;SDS011;4807;48.024;11.726;2022-09-09T15:43:42;0.23;;;0.20;;
9536;SDS011;4807;48.024;11.726;2022-09-09T15:46:53;0.63;;;0.20;;
9536;SDS011;4807;48.024;11.726;2022-09-09T15:50:02;1.07;;;0.20;;
9536;SDS011;4807;48.024;11.726;2022-09-09T15:53:10;0.30;;;0.20;;
9536;SDS011;4807;48.024;11.726;2022-09-09T15:56:18;0.40;;;0.20;;
9536;SDS011;4807;48.024;11.726;2022-09-09T15:59:27;0.20;;;0.20;;
9536;SDS011;4807;48.024;11.726;2022-09-09T16:02:38;0.30;;;0.30;;
9536;SDS011;4807;48.024;11.726;2022-09-09T16:05:50;0.93;;;0.30;;
9536;SDS011;4807;48.024;11.726;2022-09-09T16:08:59;0.30;;;0.20;;
9536;SDS011;4807;48.024;11.726;2022-09-09T16:12:09;0.70;;;0.30;;
9536;SDS011;4807;48.024;11.726;2022-09-09T16:15:19;2.50;;;0.43;;
9536;SDS011;4807;48.024;11.726;2022-09-09T16:18:34;0.97;;;0.17;;
9536;SDS011;4807;48.024;11.726;2022-09-09T16:21:44;0.87;;;0.27;;
9536;SDS011;4807;48.024;11.726;2022-09-09T16:24:54;0.53;;;0.20;;
9536;SDS011;4807;48.024;11.726;2022-09-09T16:28:02;2.73;;;0.40;;
9536;SDS011;4807;48.024;11.726;2022-09-09T16:31:13;1.43;;;0.30;;
9536;SDS011;4807;48.024;11.726;2022-09-09T16:34:26;0.50;;;0.20;;
9536;SDS011;4807;48.024;11.726;2022-09-09T16:37:35;2.17;;;0.50;;
9536;SDS011;4807;48.024;11.726;2022-09-09T16:40:43;0.60;;;0.13;;
9536;SDS011;4807;48.024;11.726;2022-09-09T16:43:52;2.17;;;0.30;;
9536;SDS011;4807;48.024;11.726;2022-09-09T16:47:01;1.13;;;0.30;;
9536;SDS011;4807;48.024;11.726;2022-09-09T16:50:11;2.10;;;0.30;;
9536;SDS011;4807;48.024;11.726;2022-09-09T16:53:20;0.67;;;0.27;;
9536;SDS011;4807;48.024;11.726;2022-09-09T16:56:28;0.97;;;0.20;;
9536;SDS011;4807;48.024;11.726;2022-09-09T16:59:39;0.20;;;0.20;;
9536;SDS011;4807;48.024;11.726;2022-09-09T17:02:47;0.83;;;0.30;;
9536;SDS011;4807;48.024;11.726;2022-09-09T17:05:57;0.70;;;0.17;;
9536;SDS011;4807;48.024;11.726;2022-09-09T17:09:09;0.93;;;0.40;;
9536;SDS011;4807;48.024;11.726;2022-09-09T17:12:19;0.43;;;0.20;;
9536;SDS011;4807;48.024;11.726;2022-09-09T17:15:28;0.47;;;0.30;;
9536;SDS011;4807;48.024;11.726;2022-09-09T17:18:36;1.87;;;0.40;;
9536;SDS011;4807;48.024;11.726;2022-09-09T17:21:47;0.33;;;0.33;;
9536;SDS011;4807;48.024;11.726;2022-09-09T17:25:16;1.23;;;0.40;;
9536;SDS011;4807;48.024;11.726;2022-09-09T17:28:24;0.30;;;0.30;;
9536;SDS011;4807;48.024;11.726;2022-09-09T17:31:37;0.30;;;0.30;;
9536;SDS011;4807;48.024;11.726;2022-09-09T17:34:47;0.97;;;0.50;;
9536;SDS011;4807;48.024;11.726;2022-09-09T17:37:56;0.73;;;0.40;;
9536;SDS011;4807;48.024;11.726;2022-09-09T17:41:05;1.87;;;0.40;;
9536;SDS011;4807;48.024;11.726;2022-09-09T17:44:17;0.40;;;0.40;;
9536;SDS011;4807;48.024;11.726;2022-09-09T17:47:25;0.60;;;0.40;;
9536;SDS011;4807;48.024;11.726;2022-09-09T17:50:34;0.40;;;0.40;;
9536;SDS011;4807;48.024;11.726;2022-09-09T17:53:44;1.80;;;0.40;;
9536;SDS011;4807;48.024;11.726;2022-09-09T17:56:56;0.63;;;0.50;;
9536;SDS011;4807;48.024;11.726;2022-09-09T18:00:06;0.40;;;0.37;;
9536;SDS011;4807;48.024;11.726;2022-09-09T18:03:19;0.87;;;0.50;;
9536;SDS011;4807;48.024;11.726;2022-09-09T18:06:28;0.53;;;0.33;;
9536;SDS011;4807;48.024;11.726;2022-09-09T18:09:45;1.80;;;0.60;;
9536;SDS011;4807;48.024;11.726;2022-09-09T18:12:55;0.73;;;0.30;;
9536;SDS011;4807;48.024;11.726;2022-09-09T18:16:05;1.87;;;0.60;;
9536;SDS011;4807;48.024;11.726;2022-09-09T18:19:15;0.87;;;0.50;;
9536;SDS011;4807;48.024;11.726;2022-09-09T18:22:26;0.90;;;0.57;;
9536;SDS011;4807;48.024;11.726;2022-09-09T18:25:38;0.50;;;0.50;;
9536;SDS011;4807;48.024;11.726;2022-09-09T18:28:48;0.77;;;0.43;;
9536;SDS011;4807;48.024;11.726;2022-09-09T18:32:00;0.70;;;0.47;;
9536;SDS011;4807;48.024;11.726;2022-09-09T18:35:08;0.70;;;0.40;;
9536;SDS011;4807;48.024;11.726;2022-09-09T18:38:16;1.70;;;0.47;;
9536;SDS011;4807;48.024;11.726;2022-09-09T18:41:27;1.17;;;0.50;;
9536;SDS011;4807;48.024;11.726;2022-09-09T18:44:37;0.83;;;0.40;;
9536;SDS011;4807;48.024;11.726;2022-09-09T18:47:46;2.00;;;0.57;;
9536;SDS011;4807;48.024;11.726;2022-09-09T18:50:55;1.07;;;0.50;;
9536;SDS011;4807;48.024;11.726;2022-09-09T18:54:04;1.30;;;1.20;;
9536;SDS011;4807;48.024;11.726;2022-09-09T18:57:17;1.30;;;0.90;;
9536;SDS011;4807;48.024;11.726;2022-09-09T19:00:25;4.90;;;2.30;;
9536;SDS011;4807;48.024;11.726;2022-09-09T19:03:35;3.07;;;1.80;;
9536;SDS011;4807;48.024;11.726;2022-09-09T19:06:44;4.10;;;2.97;;
9536;SDS011;4807;48.024;11.726;2022-09-09T19:09:54;2.30;;;1.80;;
9536;SDS011;4807;48.024;11.726;2022-09-09T19:13:04;4.07;;;2.13;;
9536;SDS011;4807;48.024;11.726;2022-09-09T19:16:13;1.10;;;0.90;;
9536;SDS011;4807;48.024;11.726;2022-09-09T19:19:23;0.97;;;0.73;;
9536;SDS011;4807;48.024;11.726;2022-09-09T19:22:33;0.93;;;0.60;;
9536;SDS011;4807;48.024;11.726;2022-09-09T19:25:42;1.17;;;0.50;;
9536;SDS011;4807;48.024;11.726;2022-09-09T19:28:52;3.70;;;0.60;;
9536;SDS011;4807;48.024;11.726;2022-09-09T19:32:00;1.83;;;0.57;;
9536;SDS011;4807;48.024;11.726;2022-09-09T19:35:29;0.50;;;0.50;;
9536;SDS011;4807;48.024;11.726;2022-09-09T19:38:37;1.10;;;0.70;;
9536;SDS011;4807;48.024;11.726;2022-09-09T19:41:47;1.60;;;0.80;;
9536;SDS011;4807;48.024;11.726;2022-09-09T19:44:57;0.70;;;0.50;;
9536;SDS011;4807;48.024;11.726;2022-09-09T19:48:05;0.60;;;0.40;;